createdAt,value
2017-08-17T19:21:23.857Z,1004.01
2017-08-17T19:23:25.400Z,1004.02
2017-08-17T19:25:50.195Z,1004.08
2017-08-17T19:28:17.230Z,1004.11
2017-08-17T19:30:41.942Z,1004.14
2017-08-17T19:33:06.627Z,1004.18
2017-08-17T19:35:31.334Z,1004.18
2017-08-17T19:37:47.687Z,1004.16
2017-08-17T19:40:12.473Z,1004.14
2017-08-17T19:42:37.316Z,1004.15
2017-08-17T19:45:01.694Z,1004.14
2017-08-17T19:47:17.938Z,1004.19
2017-08-17T19:49:42.599Z,1004.17
2017-08-17T19:51:44.773Z,1004.16
2017-08-17T19:54:09.480Z,1004.09
2017-08-17T19:56:34.179Z,1004.13
2017-08-17T19:58:50.396Z,1003.97
2017-08-17T20:01:15.032Z,1004.23
2017-08-17T20:03:39.822Z,1004.25
2017-08-17T20:06:04.601Z,1004.26
2017-08-17T20:08:29.258Z,1004.24
2017-08-17T20:10:54.120Z,1004.22
2017-08-17T20:13:18.746Z,1004.21
2017-08-17T20:15:43.494Z,1004.16
2017-08-17T20:18:08.137Z,1004.13
2017-08-17T20:20:32.871Z,1004.14
2017-08-17T20:24:33.820Z,1004.18
2017-08-17T20:26:58.780Z,1004.14
2017-08-17T20:29:15.213Z,1004.16
2017-08-17T20:31:31.462Z,1004.07
2017-08-17T20:33:56.086Z,1004.2
2017-08-17T20:38:13.790Z,1004.24
2017-08-17T20:40:38.509Z,1004.26
2017-08-17T20:46:12.756Z,1004.21
2017-08-17T20:48:40.009Z,1004.15
2017-08-17T20:51:04.628Z,1004.13
2017-08-17T20:53:29.447Z,1004.16
2017-08-17T20:55:54.160Z,1004.13
2017-08-17T20:58:18.814Z,1004.13
2017-08-17T21:00:44.262Z,1004.17
2017-08-17T21:03:09.009Z,1004.19
2017-08-17T21:05:33.768Z,1004.19
2017-08-17T21:07:58.653Z,1004.22
2017-08-17T21:10:23.610Z,1004.22
2017-08-17T21:12:48.750Z,1004.17
2017-08-17T21:15:13.144Z,1004.18
2017-08-17T21:17:37.854Z,1004.23
2017-08-17T21:20:02.404Z,1004.28
2017-08-17T21:22:28.275Z,1004.3
2017-08-17T21:24:52.749Z,1004.34
2017-08-17T21:27:18.691Z,1004.36
2017-08-17T21:29:42.272Z,1004.37
2017-08-17T21:32:06.873Z,1004.31
2017-08-17T21:34:31.550Z,1004.31
2017-08-17T21:36:42.769Z,1004.31
2017-08-17T21:39:08.252Z,1004.28
2017-08-17T21:41:33.212Z,1004.28
2017-08-17T21:43:57.980Z,1004.24
2017-08-17T21:46:24.289Z,1004.26
2017-08-17T21:48:49.762Z,1004.31
2017-08-17T21:51:15.479Z,1004.35
2017-08-17T21:53:40.734Z,1004.4
2017-08-17T21:56:05.652Z,1004.39
2017-08-17T21:58:30.901Z,1004.41
2017-08-17T22:00:55.853Z,1004.41
2017-08-17T22:03:20.441Z,1004.39
2017-08-17T22:05:44.834Z,1004.4
2017-08-17T22:08:09.536Z,1004.43
2017-08-17T22:10:34.094Z,1004.44
2017-08-17T22:12:58.674Z,1004.38
2017-08-17T22:15:23.278Z,1004.34
2017-08-17T22:21:00.025Z,1004.3
2017-08-17T22:23:24.640Z,1004.32
2017-08-17T22:25:49.172Z,1004.3
2017-08-17T22:28:13.703Z,1004.35
2017-08-17T22:30:38.216Z,1004.39
2017-08-17T22:33:02.792Z,1004.37
2017-08-17T22:35:27.218Z,1004.37
2017-08-17T22:37:51.675Z,1004.41
2017-08-17T22:40:16.169Z,1004.39
2017-08-17T22:42:40.669Z,1004.44
2017-08-17T22:45:05.211Z,1004.41
2017-08-17T22:47:29.660Z,1004.39
2017-08-17T22:49:54.148Z,1004.42
2017-08-17T22:52:18.626Z,1004.41
2017-08-17T22:54:43.135Z,1004.42
2017-08-17T22:57:07.648Z,1004.42
2017-08-17T22:59:32.087Z,1004.42
2017-08-17T23:01:56.642Z,1004.44
2017-08-17T23:04:21.110Z,1004.43
2017-08-17T23:06:45.592Z,1004.39
2017-08-17T23:09:10.108Z,1004.39
2017-08-17T23:11:34.675Z,1004.39
2017-08-17T23:13:59.149Z,1004.4
2017-08-17T23:17:46.654Z,1004.32
2017-08-17T23:20:11.200Z,1004.33
2017-08-17T23:22:27.223Z,1004.33
2017-08-17T23:24:51.678Z,1004.31
2017-08-17T23:27:16.173Z,1004.31
2017-08-17T23:29:40.679Z,1004.23
2017-08-17T23:31:50.799Z,1004.19
2017-08-17T23:34:15.243Z,1004.2
2017-08-17T23:36:40.686Z,1004.23
2017-08-17T23:39:05.102Z,1004.21
2017-08-17T23:41:29.640Z,1004.18
2017-08-17T23:43:54.107Z,1004.12
2017-08-17T23:46:18.563Z,1004.07
2017-08-17T23:48:43.068Z,1004.12
2017-08-17T23:51:07.617Z,1004.09
2017-08-17T23:53:32.134Z,1004.08
2017-08-17T23:55:48.191Z,1003.94
2017-08-17T23:58:12.697Z,1004.05
